sensor_id;sensor_type;location;lat;lon;timestamp;P1;durP1;ratioP1;P2;durP2;ratioP2
57718;SDS011;43561;50.090;18.522;2022-09-25T00:04:33;90.15;;;45.80;;
57718;SDS011;43561;50.090;18.522;2022-09-25T00:14:35;82.30;;;38.85;;
57718;SDS011;43561;50.090;18.522;2022-09-25T00:24:37;68.97;;;35.40;;
57718;SDS011;43561;50.090;18.522;2022-09-25T00:34:39;53.92;;;33.33;;
57718;SDS011;43561;50.090;18.522;2022-09-25T00:55:06;45.17;;;28.35;;
57718;SDS011;43561;50.090;18.522;2022-09-25T01:05:11;73.85;;;35.17;;
57718;SDS011;43561;50.090;18.522;2022-09-25T01:15:19;51.77;;;25.57;;
57718;SDS011;43561;50.090;18.522;2022-09-25T01:35:57;59.78;;;27.30;;
57718;SDS011;43561;50.090;18.522;2022-09-25T01:46:12;46.88;;;21.00;;
57718;SDS011;43561;50.090;18.522;2022-09-25T02:06:29;33.65;;;16.38;;
57718;SDS011;43561;50.090;18.522;2022-09-25T02:16:37;31.08;;;15.25;;
57718;SDS011;43561;50.090;18.522;2022-09-25T02:26:41;35.13;;;15.52;;
57718;SDS011;43561;50.090;18.522;2022-09-25T02:36:42;19.58;;;12.38;;
57718;SDS011;43561;50.090;18.522;2022-09-25T02:57:22;24.88;;;13.88;;
57718;SDS011;43561;50.090;18.522;2022-09-25T03:07:28;31.08;;;17.27;;
57718;SDS011;43561;50.090;18.522;2022-09-25T03:17:30;38.85;;;20.35;;
57718;SDS011;43561;50.090;18.522;2022-09-25T03:27:33;43.20;;;24.30;;
57718;SDS011;43561;50.090;18.522;2022-09-25T03:37:35;39.40;;;22.65;;
57718;SDS011;43561;50.090;18.522;2022-09-25T03:47:37;43.47;;;25.25;;
57718;SDS011;43561;50.090;18.522;2022-09-25T03:57:39;30.30;;;17.33;;
57718;SDS011;43561;50.090;18.522;2022-09-25T04:07:41;29.42;;;16.48;;
57718;SDS011;43561;50.090;18.522;2022-09-25T04:17:43;40.95;;;23.60;;
57718;SDS011;43561;50.090;18.522;2022-09-25T04:27:45;61.00;;;32.05;;
57718;SDS011;43561;50.090;18.522;2022-09-25T04:37:47;53.45;;;27.98;;
57718;SDS011;43561;50.090;18.522;2022-09-25T04:47:49;61.75;;;29.83;;
57718;SDS011;43561;50.090;18.522;2022-09-25T04:57:56;47.90;;;28.73;;
57718;SDS011;43561;50.090;18.522;2022-09-25T05:08:00;45.13;;;24.35;;
57718;SDS011;43561;50.090;18.522;2022-09-25T05:18:14;42.20;;;23.13;;
57718;SDS011;43561;50.090;18.522;2022-09-25T05:28:18;53.35;;;24.65;;
57718;SDS011;43561;50.090;18.522;2022-09-25T05:38:20;34.65;;;22.77;;
57718;SDS011;43561;50.090;18.522;2022-09-25T05:48:22;42.15;;;24.02;;
57718;SDS011;43561;50.090;18.522;2022-09-25T05:58:24;38.72;;;21.10;;
57718;SDS011;43561;50.090;18.522;2022-09-25T06:08:28;47.38;;;24.02;;
57718;SDS011;43561;50.090;18.522;2022-09-25T06:18:31;45.90;;;24.85;;
57718;SDS011;43561;50.090;18.522;2022-09-25T06:28:33;44.85;;;23.75;;
57718;SDS011;43561;50.090;18.522;2022-09-25T06:38:35;39.65;;;25.40;;
57718;SDS011;43561;50.090;18.522;2022-09-25T06:48:42;36.83;;;25.52;;
57718;SDS011;43561;50.090;18.522;2022-09-25T06:58:45;30.38;;;19.85;;
57718;SDS011;43561;50.090;18.522;2022-09-25T07:08:47;31.98;;;20.10;;
57718;SDS011;43561;50.090;18.522;2022-09-25T07:18:51;30.23;;;19.40;;
57718;SDS011;43561;50.090;18.522;2022-09-25T07:28:59;34.42;;;23.88;;
57718;SDS011;43561;50.090;18.522;2022-09-25T07:39:02;34.17;;;23.48;;
57718;SDS011;43561;50.090;18.522;2022-09-25T07:49:04;51.35;;;27.92;;
57718;SDS011;43561;50.090;18.522;2022-09-25T07:59:06;36.13;;;22.88;;
57718;SDS011;43561;50.090;18.522;2022-09-25T08:09:09;46.95;;;26.13;;
57718;SDS011;43561;50.090;18.522;2022-09-25T08:19:11;39.25;;;25.25;;
57718;SDS011;43561;50.090;18.522;2022-09-25T08:29:13;33.08;;;25.60;;
57718;SDS011;43561;50.090;18.522;2022-09-25T08:39:16;50.42;;;31.65;;
57718;SDS011;43561;50.090;18.522;2022-09-25T08:49:18;36.20;;;25.73;;
57718;SDS011;43561;50.090;18.522;2022-09-25T08:59:27;37.50;;;24.50;;
57718;SDS011;43561;50.090;18.522;2022-09-25T09:09:40;22.35;;;13.45;;
57718;SDS011;43561;50.090;18.522;2022-09-25T09:19:47;26.35;;;14.10;;
57718;SDS011;43561;50.090;18.522;2022-09-25T10:00:52;27.13;;;19.02;;
57718;SDS011;43561;50.090;18.522;2022-09-25T10:10:54;23.70;;;15.43;;
57718;SDS011;43561;50.090;18.522;2022-09-25T10:20:58;19.65;;;13.00;;
57718;SDS011;43561;50.090;18.522;2022-09-25T10:31:06;15.97;;;12.50;;
57718;SDS011;43561;50.090;18.522;2022-09-25T10:41:10;20.15;;;13.52;;
57718;SDS011;43561;50.090;18.522;2022-09-25T10:51:14;15.45;;;9.65;;
57718;SDS011;43561;50.090;18.522;2022-09-25T11:01:17;16.65;;;10.55;;
57718;SDS011;43561;50.090;18.522;2022-09-25T11:11:20;20.15;;;11.40;;
57718;SDS011;43561;50.090;18.522;2022-09-25T11:21:29;10.68;;;8.98;;
57718;SDS011;43561;50.090;18.522;2022-09-25T11:31:38;9.90;;;8.40;;
57718;SDS011;43561;50.090;18.522;2022-09-25T11:52:16;15.20;;;8.85;;
57718;SDS011;43561;50.090;18.522;2022-09-25T12:02:51;13.90;;;8.98;;
57718;SDS011;43561;50.090;18.522;2022-09-25T12:13:16;14.43;;;9.70;;
57718;SDS011;43561;50.090;18.522;2022-09-25T12:23:37;8.50;;;7.63;;
57718;SDS011;43561;50.090;18.522;2022-09-25T12:33:47;12.35;;;8.43;;
57718;SDS011;43561;50.090;18.522;2022-09-25T12:54:49;7.70;;;6.00;;
57718;SDS011;43561;50.090;18.522;2022-09-25T13:15:27;11.35;;;6.75;;
57718;SDS011;43561;50.090;18.522;2022-09-25T13:25:38;12.40;;;8.70;;
57718;SDS011;43561;50.090;18.522;2022-09-25T13:35:45;9.05;;;7.72;;
57718;SDS011;43561;50.090;18.522;2022-09-25T13:45:47;10.70;;;8.15;;
57718;SDS011;43561;50.090;18.522;2022-09-25T14:05:58;12.20;;;8.43;;
57718;SDS011;43561;50.090;18.522;2022-09-25T14:16:01;10.00;;;8.52;;
57718;SDS011;43561;50.090;18.522;2022-09-25T14:26:27;14.45;;;9.15;;
57718;SDS011;43561;50.090;18.522;2022-09-25T14:46:58;17.65;;;10.02;;
57718;SDS011;43561;50.090;18.522;2022-09-25T14:57:00;12.45;;;9.02;;
57718;SDS011;43561;50.090;18.522;2022-09-25T15:17:07;42.65;;;22.55;;
57718;SDS011;43561;50.090;18.522;2022-09-25T15:27:10;17.48;;;11.18;;
57718;SDS011;43561;50.090;18.522;2022-09-25T15:37:21;15.45;;;10.18;;
57718;SDS011;43561;50.090;18.522;2022-09-25T15:47:45;15.00;;;9.82;;
57718;SDS011;43561;50.090;18.522;2022-09-25T15:57:51;12.40;;;10.15;;
57718;SDS011;43561;50.090;18.522;2022-09-25T16:28:25;17.38;;;11.75;;
57718;SDS011;43561;50.090;18.522;2022-09-25T16:38:30;19.52;;;13.30;;
57718;SDS011;43561;50.090;18.522;2022-09-25T16:48:37;19.15;;;15.07;;
57718;SDS011;43561;50.090;18.522;2022-09-25T16:58:40;27.50;;;14.80;;
57718;SDS011;43561;50.090;18.522;2022-09-25T17:08:42;32.58;;;20.13;;
57718;SDS011;43561;50.090;18.522;2022-09-25T17:18:44;34.80;;;20.55;;
57718;SDS011;43561;50.090;18.522;2022-09-25T17:28:46;45.45;;;27.05;;
57718;SDS011;43561;50.090;18.522;2022-09-25T17:38:49;45.72;;;25.10;;
57718;SDS011;43561;50.090;18.522;2022-09-25T17:48:51;35.00;;;21.05;;
57718;SDS011;43561;50.090;18.522;2022-09-25T17:58:55;31.00;;;21.98;;
57718;SDS011;43561;50.090;18.522;2022-09-25T18:08:58;42.28;;;27.30;;
57718;SDS011;43561;50.090;18.522;2022-09-25T18:19:00;41.83;;;27.55;;
57718;SDS011;43561;50.090;18.522;2022-09-25T18:29:02;41.55;;;23.98;;
57718;SDS011;43561;50.090;18.522;2022-09-25T18:39:04;52.13;;;28.55;;
57718;SDS011;43561;50.090;18.522;2022-09-25T18:49:06;52.30;;;27.63;;
57718;SDS011;43561;50.090;18.522;2022-09-25T18:59:08;40.80;;;21.23;;
57718;SDS011;43561;50.090;18.522;2022-09-25T19:09:10;38.45;;;20.10;;
57718;SDS011;43561;50.090;18.522;2022-09-25T19:19:17;31.67;;;19.55;;
57718;SDS011;43561;50.090;18.522;2022-09-25T19:29:20;33.40;;;20.50;;
57718;SDS011;43561;50.090;18.522;2022-09-25T19:39:22;32.65;;;19.40;;
57718;SDS011;43561;50.090;18.522;2022-09-25T19:49:24;36.90;;;21.48;;
57718;SDS011;43561;50.090;18.522;2022-09-25T19:59:32;38.55;;;24.63;;
57718;SDS011;43561;50.090;18.522;2022-09-25T20:09:35;31.63;;;21.23;;
57718;SDS011;43561;50.090;18.522;2022-09-25T20:19:40;35.67;;;23.17;;
57718;SDS011;43561;50.090;18.522;2022-09-25T20:29:42;43.03;;;21.77;;
57718;SDS011;43561;50.090;18.522;2022-09-25T20:39:44;45.45;;;22.83;;
57718;SDS011;43561;50.090;18.522;2022-09-25T20:49:46;37.97;;;21.05;;
57718;SDS011;43561;50.090;18.522;2022-09-25T20:59:49;45.90;;;23.35;;
57718;SDS011;43561;50.090;18.522;2022-09-25T21:09:51;46.28;;;25.55;;
57718;SDS011;43561;50.090;18.522;2022-09-25T21:19:54;54.88;;;25.58;;
57718;SDS011;43561;50.090;18.522;2022-09-25T21:29:56;36.60;;;21.00;;
57718;SDS011;43561;50.090;18.522;2022-09-25T21:39:57;38.33;;;22.35;;
57718;SDS011;43561;50.090;18.522;2022-09-25T21:49:59;50.92;;;26.60;;
57718;SDS011;43561;50.090;18.522;2022-09-25T22:00:02;42.97;;;23.13;;
57718;SDS011;43561;50.090;18.522;2022-09-25T22:10:05;44.15;;;23.27;;
57718;SDS011;43561;50.090;18.522;2022-09-25T22:20:07;46.40;;;24.02;;
57718;SDS011;43561;50.090;18.522;2022-09-25T22:30:09;35.10;;;20.33;;
57718;SDS011;43561;50.090;18.522;2022-09-25T22:40:11;36.92;;;21.88;;
57718;SDS011;43561;50.090;18.522;2022-09-25T22:50:14;33.75;;;21.55;;
57718;SDS011;43561;50.090;18.522;2022-09-25T23:00:16;29.60;;;17.15;;
57718;SDS011;43561;50.090;18.522;2022-09-25T23:10:18;43.65;;;23.58;;
57718;SDS011;43561;50.090;18.522;2022-09-25T23:20:19;36.20;;;20.65;;
57718;SDS011;43561;50.090;18.522;2022-09-25T23:30:21;37.17;;;22.55;;
57718;SDS011;43561;50.090;18.522;2022-09-25T23:40:36;37.28;;;22.42;;
57718;SDS011;43561;50.090;18.522;2022-09-25T23:50:38;33.78;;;18.23;;
